Havana, Alabama
Current Conditions -  °F | °C
As of 10:53 PM on Wednesday 26 Nov 2014 (Local Time) from KTCL Reporting Station
Clear Clear  
Wind Chill: 46°   Ceiling: Unl
Heat Index: 48°   Visibility: 10mi
Dew Point: 26°   Wind: 5mph
Humidity: 42%   Direction: 310°NW
Pressure: 30.19"   Gusts: NA
Location:  32.9469°N, 87.5552°W
Report Text: KTCL 270453Z AUTO 31004KT 10SM CLR 09/M03 A3019 RMK AO2 SLP222 T00891033
Loading
Personal Weather Stations






























Interactive Weather Map New forecast layout! Learn more

10-Day Weather Forecast

Advertisements
Track Severe Weather on mobile